Terminal Aerodrome Forecast
Issued by NWS

Home | Current Version | Previous Version | Text Only | Print | Product List | Glossary On
Versions: 1 2 3 4 5 6 7 8 9 10 11 12 13 14 15
279
FTUS45 KFGZ 252329
TAFGCN
TAF
KGCN 252329Z 2600/2624 VRB08KT P6SM VCTS BKN080CB
      TEMPO 2600/2602 VRB15G25KT 4SM -TSRA BKN070CB
     FM260200 VRB05KT P6SM SCT100 BKN200
     FM262200 VRB05KT P6SM SCT080 BKN100 PROB30 2622/2624 TSRA
      BKN080CB=

USA.gov is the U.S. government's official web portal to all federal, state and local government web resources and services.